sensor_id;sensor_type;location;lat;lon;timestamp;pressure;altitude;pressure_sealevel;temperature;humidity
39823;BME280;25499;53.958;10.970;2023-04-26T06:13:11;101201.75;;;6.66;89.75
39823;BME280;25499;53.958;10.970;2023-04-26T06:15:38;101189.09;;;6.80;88.24
39823;BME280;25499;53.958;10.970;2023-04-26T06:18:06;101193.00;;;7.03;87.33
39823;BME280;25499;53.958;10.970;2023-04-26T06:20:33;101197.72;;;7.27;86.36
39823;BME280;25499;53.958;10.970;2023-04-26T06:23:00;101184.84;;;7.31;85.18
39823;BME280;25499;53.958;10.970;2023-04-26T06:25:28;101195.56;;;7.52;84.99
39823;BME280;25499;53.958;10.970;2023-04-26T06:27:55;101190.44;;;7.55;84.46
39823;BME280;25499;53.958;10.970;2023-04-26T06:30:24;101204.72;;;7.85;85.06
39823;BME280;25499;53.958;10.970;2023-04-26T06:32:51;101202.56;;;8.14;84.31
39823;BME280;25499;53.958;10.970;2023-04-26T06:35:18;101170.63;;;8.18;81.57
39823;BME280;25499;53.958;10.970;2023-04-26T06:37:45;101172.81;;;8.50;80.99
39823;BME280;25499;53.958;10.970;2023-04-26T06:40:12;101162.22;;;8.38;79.75
39823;BME280;25499;53.958;10.970;2023-04-26T06:42:40;101179.97;;;8.71;80.02
39823;BME280;25499;53.958;10.970;2023-04-26T06:45:08;101168.88;;;8.85;78.00
39823;BME280;25499;53.958;10.970;2023-04-26T06:47:37;101130.78;;;8.84;75.69
39823;BME280;25499;53.958;10.970;2023-04-26T06:50:04;101133.41;;;8.88;74.51
39823;BME280;25499;53.958;10.970;2023-04-26T06:52:31;101116.97;;;8.91;72.91
39823;BME280;25499;53.958;10.970;2023-04-26T06:55:00;101169.38;;;9.42;75.21
39823;BME280;25499;53.958;10.970;2023-04-26T06:57:27;101138.22;;;9.40;73.14
39823;BME280;25499;53.958;10.970;2023-04-26T06:59:53;101119.19;;;9.46;71.92
39823;BME280;25499;53.958;10.970;2023-04-26T07:02:22;101120.22;;;9.69;70.98
39823;BME280;25499;53.958;10.970;2023-04-26T07:04:50;101119.47;;;9.89;71.02
39823;BME280;25499;53.958;10.970;2023-04-26T07:07:17;101097.03;;;10.13;68.96
39823;BME280;25499;53.958;10.970;2023-04-26T07:09:43;101063.00;;;9.65;67.03
39823;BME280;25499;53.958;10.970;2023-04-26T07:12:10;101114.31;;;10.03;68.49
39823;BME280;25499;53.958;10.970;2023-04-26T07:14:37;101076.97;;;9.85;66.91
39823;BME280;25499;53.958;10.970;2023-04-26T07:17:05;101103.97;;;10.11;68.13
39823;BME280;25499;53.958;10.970;2023-04-26T07:19:31;101110.19;;;10.43;67.35
39823;BME280;25499;53.958;10.970;2023-04-26T07:22:00;101046.50;;;9.58;65.40
39823;BME280;25499;53.958;10.970;2023-04-26T07:24:27;101079.72;;;10.16;65.57
39823;BME280;25499;53.958;10.970;2023-04-26T07:26:53;101088.53;;;10.58;66.20
39823;BME280;25499;53.958;10.970;2023-04-26T07:29:20;101079.00;;;10.62;65.14
39823;BME280;25499;53.958;10.970;2023-04-26T07:34:31;101014.78;;;10.53;61.71
39823;BME280;25499;53.958;10.970;2023-04-26T07:37:00;101022.63;;;10.79;60.82
39823;BME280;25499;53.958;10.970;2023-04-26T07:39:27;101085.97;;;11.37;63.07
39823;BME280;25499;53.958;10.970;2023-04-26T07:41:54;101069.47;;;11.44;62.05
39823;BME280;25499;53.958;10.970;2023-04-26T07:44:21;101000.84;;;11.39;59.35
39823;BME280;25499;53.958;10.970;2023-04-26T07:46:48;100997.34;;;11.42;58.57
39823;BME280;25499;53.958;10.970;2023-04-26T07:49:17;101039.94;;;11.27;60.19
39823;BME280;25499;53.958;10.970;2023-04-26T07:51:45;101071.16;;;11.59;61.37
39823;BME280;25499;53.958;10.970;2023-04-26T07:54:13;101058.03;;;12.01;60.40
39823;BME280;25499;53.958;10.970;2023-04-26T07:56:40;101042.38;;;12.08;58.77
39823;BME280;25499;53.958;10.970;2023-04-26T07:59:06;101017.19;;;11.84;59.14
39823;BME280;25499;53.958;10.970;2023-04-26T08:01:33;100985.84;;;12.00;56.48
39823;BME280;25499;53.958;10.970;2023-04-26T08:04:00;100961.50;;;12.01;54.34
39823;BME280;25499;53.958;10.970;2023-04-26T08:06:26;101024.66;;;12.55;56.75
39823;BME280;25499;53.958;10.970;2023-04-26T08:08:54;100966.22;;;12.73;54.91
39823;BME280;25499;53.958;10.970;2023-04-26T08:11:22;101002.38;;;13.18;54.29
39823;BME280;25499;53.958;10.970;2023-04-26T08:13:49;100966.78;;;13.04;52.27
39823;BME280;25499;53.958;10.970;2023-04-26T08:16:17;100994.97;;;12.68;53.99
39823;BME280;25499;53.958;10.970;2023-04-26T08:18:43;101002.38;;;12.03;54.78
39823;BME280;25499;53.958;10.970;2023-04-26T08:21:10;100994.56;;;11.92;55.09
39823;BME280;25499;53.958;10.970;2023-04-26T08:23:37;101003.50;;;10.96;56.02
39823;BME280;25499;53.958;10.970;2023-04-26T08:26:05;100987.72;;;9.94;56.82
39823;BME280;25499;53.958;10.970;2023-04-26T08:28:33;101068.56;;;10.45;58.44
39823;BME280;25499;53.958;10.970;2023-04-26T08:31:00;101012.16;;;10.47;56.65
39823;BME280;25499;53.958;10.970;2023-04-26T08:33:27;101058.16;;;11.54;56.30
39823;BME280;25499;53.958;10.970;2023-04-26T08:35:54;101011.84;;;12.15;54.08
39823;BME280;25499;53.958;10.970;2023-04-26T08:38:21;100989.88;;;12.53;51.86
39823;BME280;25499;53.958;10.970;2023-04-26T08:40:50;101005.78;;;13.26;52.57
39823;BME280;25499;53.958;10.970;2023-04-26T08:43:17;100982.69;;;13.67;51.05
39823;BME280;25499;53.958;10.970;2023-04-26T08:45:45;100908.34;;;12.12;50.38
39823;BME280;25499;53.958;10.970;2023-04-26T08:48:12;100958.53;;;12.50;50.91
39823;BME280;25499;53.958;10.970;2023-04-26T08:50:42;100947.25;;;12.48;50.98
39823;BME280;25499;53.958;10.970;2023-04-26T08:53:13;100998.50;;;12.64;51.53
39823;BME280;25499;53.958;10.970;2023-04-26T08:55:42;100973.06;;;12.85;50.73
39823;BME280;25499;53.958;10.970;2023-04-26T08:58:12;100959.34;;;12.60;50.54
39823;BME280;25499;53.958;10.970;2023-04-26T09:00:42;100992.94;;;13.00;51.33
39823;BME280;25499;53.958;10.970;2023-04-26T09:03:10;101015.00;;;14.32;50.75
39823;BME280;25499;53.958;10.970;2023-04-26T09:05:38;100972.69;;;14.59;49.64
39823;BME280;25499;53.958;10.970;2023-04-26T09:08:11;100900.38;;;13.89;47.84
39823;BME280;25499;53.958;10.970;2023-04-26T09:10:41;100963.97;;;14.57;48.07
39823;BME280;25499;53.958;10.970;2023-04-26T09:13:07;100902.59;;;13.58;47.70
39823;BME280;25499;53.958;10.970;2023-04-26T09:15:35;100895.22;;;13.13;47.09
39823;BME280;25499;53.958;10.970;2023-04-26T09:18:19;100963.50;;;13.66;48.54
39823;BME280;25499;53.958;10.970;2023-04-26T09:21:02;100883.66;;;14.52;45.96
39823;BME280;25499;53.958;10.970;2023-04-26T09:23:29;100890.75;;;13.24;46.04
39823;BME280;25499;53.958;10.970;2023-04-26T09:26:15;100922.31;;;13.82;46.55
39823;BME280;25499;53.958;10.970;2023-04-26T09:28:42;100892.47;;;12.39;47.51
39823;BME280;25499;53.958;10.970;2023-04-26T09:31:10;100924.13;;;11.94;48.55
39823;BME280;25499;53.958;10.970;2023-04-26T09:33:56;100947.75;;;11.54;49.70
39823;BME280;25499;53.958;10.970;2023-04-26T09:36:23;100997.38;;;11.35;51.66
39823;BME280;25499;53.958;10.970;2023-04-26T09:38:50;101039.16;;;12.95;51.06
39823;BME280;25499;53.958;10.970;2023-04-26T09:41:17;100998.06;;;13.91;49.27
39823;BME280;25499;53.958;10.970;2023-04-26T09:43:44;100969.97;;;14.66;47.18
39823;BME280;25499;53.958;10.970;2023-04-26T09:46:21;100876.41;;;14.71;43.97
39823;BME280;25499;53.958;10.970;2023-04-26T09:48:59;100956.75;;;15.64;45.67
39823;BME280;25499;53.958;10.970;2023-04-26T09:51:26;100890.75;;;15.41;43.72
39823;BME280;25499;53.958;10.970;2023-04-26T09:53:54;100897.47;;;15.54;43.96
39823;BME280;25499;53.958;10.970;2023-04-26T09:56:21;100905.34;;;15.96;42.86
39823;BME280;25499;53.958;10.970;2023-04-26T09:58:55;100896.00;;;15.83;42.99
39823;BME280;25499;53.958;10.970;2023-04-26T10:01:24;100882.88;;;15.83;42.44
39823;BME280;25499;53.958;10.970;2023-04-26T10:03:55;100875.03;;;16.55;41.19
39823;BME280;25499;53.958;10.970;2023-04-26T10:06:22;100888.47;;;16.77;42.39
39823;BME280;25499;53.958;10.970;2023-04-26T10:08:50;100915.34;;;15.80;42.91
39823;BME280;25499;53.958;10.970;2023-04-26T10:11:17;100929.72;;;16.01;43.14
39823;BME280;25499;53.958;10.970;2023-04-26T10:13:44;100867.31;;;16.47;42.16
39823;BME280;25499;53.958;10.970;2023-04-26T10:16:10;100788.66;;;15.32;40.08
39823;BME280;25499;53.958;10.970;2023-04-26T10:18:37;100865.22;;;14.62;41.93
39823;BME280;25499;53.958;10.970;2023-04-26T10:21:08;100846.88;;;13.50;44.05
39823;BME280;25499;53.958;10.970;2023-04-26T10:23:37;100922.09;;;13.28;45.81
39823;BME280;25499;53.958;10.970;2023-04-26T10:26:04;100956.66;;;13.56;46.54
39823;BME280;25499;53.958;10.970;2023-04-26T10:28:53;100978.44;;;13.58;47.53
39823;BME280;25499;53.958;10.970;2023-04-26T10:31:21;101002.06;;;14.79;47.00
39823;BME280;25499;53.958;10.970;2023-04-26T10:34:19;100992.72;;;15.14;46.17
39823;BME280;25499;53.958;10.970;2023-04-26T10:37:09;100987.56;;;15.98;44.78
39823;BME280;25499;53.958;10.970;2023-04-26T10:39:37;100951.97;;;16.96;43.36
39823;BME280;25499;53.958;10.970;2023-04-26T10:42:17;100928.47;;;17.23;41.70
39823;BME280;25499;53.958;10.970;2023-04-26T10:44:47;100869.41;;;17.02;41.33
39823;BME280;25499;53.958;10.970;2023-04-26T10:47:29;100890.56;;;16.28;41.38
39823;BME280;25499;53.958;10.970;2023-04-26T10:50:03;100929.19;;;15.87;42.87
39823;BME280;25499;53.958;10.970;2023-04-26T10:52:33;100895.59;;;14.73;43.76
39823;BME280;25499;53.958;10.970;2023-04-26T10:55:00;100949.66;;;14.22;45.88
39823;BME280;25499;53.958;10.970;2023-04-26T10:57:49;100999.56;;;13.39;48.96
39823;BME280;25499;53.958;10.970;2023-04-26T11:00:27;101074.69;;;15.25;49.04
39823;BME280;25499;53.958;10.970;2023-04-26T11:03:02;101051.75;;;16.27;47.33
39823;BME280;25499;53.958;10.970;2023-04-26T11:08:17;100956.53;;;17.22;43.51
39823;BME280;25499;53.958;10.970;2023-04-26T11:10:49;100856.75;;;13.90;44.39
39823;BME280;25499;53.958;10.970;2023-04-26T11:13:17;100889.47;;;12.82;45.91
39823;BME280;25499;53.958;10.970;2023-04-26T11:15:46;100997.38;;;14.98;47.14
39823;BME280;25499;53.958;10.970;2023-04-26T11:18:13;100970.00;;;16.75;44.39
39823;BME280;25499;53.958;10.970;2023-04-26T11:20:44;100938.19;;;17.19;42.91
39823;BME280;25499;53.958;10.970;2023-04-26T11:23:11;100986.16;;;18.21;42.73
39823;BME280;25499;53.958;10.970;2023-04-26T11:25:39;100985.03;;;18.57;42.24
39823;BME280;25499;53.958;10.970;2023-04-26T11:28:06;100834.06;;;17.10;39.58
39823;BME280;25499;53.958;10.970;2023-04-26T11:30:33;100818.50;;;15.26;41.69
39823;BME280;25499;53.958;10.970;2023-04-26T11:33:01;100950.22;;;16.25;42.96
39823;BME280;25499;53.958;10.970;2023-04-26T11:35:28;101077.94;;;17.76;46.38
39823;BME280;25499;53.958;10.970;2023-04-26T11:37:57;101031.53;;;17.06;46.66
39823;BME280;25499;53.958;10.970;2023-04-26T11:40:29;101039.16;;;17.48;46.21
39823;BME280;25499;53.958;10.970;2023-04-26T11:42:59;100969.16;;;16.00;46.14
39823;BME280;25499;53.958;10.970;2023-04-26T11:45:27;100931.31;;;14.78;46.39
39823;BME280;25499;53.958;10.970;2023-04-26T11:47:54;100988.94;;;14.22;48.03
39823;BME280;25499;53.958;10.970;2023-04-26T11:50:23;100928.66;;;12.83;47.84
39823;BME280;25499;53.958;10.970;2023-04-26T11:52:53;101030.34;;;13.10;49.80
39823;BME280;25499;53.958;10.970;2023-04-26T11:55:23;100991.09;;;11.87;50.16
39823;BME280;25499;53.958;10.970;2023-04-26T11:57:50;101080.78;;;11.46;53.19
39823;BME280;25499;53.958;10.970;2023-04-26T12:00:20;101132.91;;;11.52;55.64
39823;BME280;25499;53.958;10.970;2023-04-26T12:02:48;101185.94;;;11.39;57.33
39823;BME280;25499;53.958;10.970;2023-04-26T12:05:22;101237.13;;;11.01;59.69
39823;BME280;25499;53.958;10.970;2023-04-26T12:07:51;101288.34;;;11.02;62.53
39823;BME280;25499;53.958;10.970;2023-04-26T12:10:19;101271.69;;;10.57;64.49
39823;BME280;25499;53.958;10.970;2023-04-26T12:12:47;101288.06;;;10.39;66.13
39823;BME280;25499;53.958;10.970;2023-04-26T12:15:15;101302.34;;;11.31;66.85
39823;BME280;25499;53.958;10.970;2023-04-26T12:17:53;101295.47;;;11.76;66.19
39823;BME280;25499;53.958;10.970;2023-04-26T12:20:27;101231.13;;;11.72;62.98
39823;BME280;25499;53.958;10.970;2023-04-26T12:23:03;101259.84;;;11.76;63.97
39823;BME280;25499;53.958;10.970;2023-04-26T12:25:31;101235.44;;;11.44;63.56
39823;BME280;25499;53.958;10.970;2023-04-26T12:27:59;101231.94;;;11.15;62.96
39823;BME280;25499;53.958;10.970;2023-04-26T12:30:26;101216.28;;;11.05;62.65
39823;BME280;25499;53.958;10.970;2023-04-26T12:32:55;101186.75;;;11.07;60.78
39823;BME280;25499;53.958;10.970;2023-04-26T12:35:22;101192.88;;;11.86;59.72
39823;BME280;25499;53.958;10.970;2023-04-26T12:37:49;101179.84;;;12.03;59.22
39823;BME280;25499;53.958;10.970;2023-04-26T12:40:18;101156.34;;;11.86;58.70
39823;BME280;25499;53.958;10.970;2023-04-26T12:42:46;101113.69;;;12.00;56.25
39823;BME280;25499;53.958;10.970;2023-04-26T12:45:15;101134.78;;;13.23;55.05
39823;BME280;25499;53.958;10.970;2023-04-26T12:47:43;101123.53;;;13.15;54.58
39823;BME280;25499;53.958;10.970;2023-04-26T12:50:12;101092.03;;;14.14;52.11
39823;BME280;25499;53.958;10.970;2023-04-26T12:52:39;101090.19;;;14.24;51.70
39823;BME280;25499;53.958;10.970;2023-04-26T12:55:09;101046.59;;;13.44;51.57
39823;BME280;25499;53.958;10.970;2023-04-26T12:57:37;101077.47;;;13.03;52.21
39823;BME280;25499;53.958;10.970;2023-04-26T13:00:05;101066.16;;;12.98;52.24
39823;BME280;25499;53.958;10.970;2023-04-26T13:02:34;101035.94;;;12.60;52.17
39823;BME280;25499;53.958;10.970;2023-04-26T13:05:01;101037.19;;;11.87;52.47
39823;BME280;25499;53.958;10.970;2023-04-26T13:07:30;101085.91;;;11.71;54.65
39823;BME280;25499;53.958;10.970;2023-04-26T13:09:58;101098.13;;;11.55;55.57
39823;BME280;25499;53.958;10.970;2023-04-26T13:12:24;101101.56;;;11.72;55.33
39823;BME280;25499;53.958;10.970;2023-04-26T13:14:52;101125.81;;;12.19;56.00
39823;BME280;25499;53.958;10.970;2023-04-26T13:17:19;101155.19;;;12.69;56.19
39823;BME280;25499;53.958;10.970;2023-04-26T13:19:46;101147.34;;;12.67;55.59
39823;BME280;25499;53.958;10.970;2023-04-26T13:22:14;101166.44;;;12.85;56.77
39823;BME280;25499;53.958;10.970;2023-04-26T13:24:42;101157.59;;;13.06;56.16
39823;BME280;25499;53.958;10.970;2023-04-26T13:27:09;101128.22;;;12.65;55.19
39823;BME280;25499;53.958;10.970;2023-04-26T13:29:36;101140.34;;;12.79;55.12
39823;BME280;25499;53.958;10.970;2023-04-26T13:32:03;101115.25;;;12.45;54.71
39823;BME280;25499;53.958;10.970;2023-04-26T13:34:29;101113.56;;;12.37;54.46
39823;BME280;25499;53.958;10.970;2023-04-26T13:36:56;101132.88;;;11.77;55.78
39823;BME280;25499;53.958;10.970;2023-04-26T13:39:25;101182.34;;;12.36;57.68
39823;BME280;25499;53.958;10.970;2023-04-26T13:41:54;101142.41;;;11.84;57.04
39823;BME280;25499;53.958;10.970;2023-04-26T13:44:24;101188.53;;;11.31;59.08
39823;BME280;25499;53.958;10.970;2023-04-26T13:46:53;101205.94;;;11.68;58.91
39823;BME280;25499;53.958;10.970;2023-04-26T13:49:20;101197.22;;;11.80;58.65
39823;BME280;25499;53.958;10.970;2023-04-26T13:51:47;101175.47;;;11.61;57.67
39823;BME280;25499;53.958;10.970;2023-04-26T13:54:14;101191.97;;;11.90;57.74
39823;BME280;25499;53.958;10.970;2023-04-26T13:56:41;101140.72;;;11.09;57.17
39823;BME280;25499;53.958;10.970;2023-04-26T13:59:10;101164.03;;;10.52;58.33
39823;BME280;25499;53.958;10.970;2023-04-26T14:01:36;101183.78;;;10.18;59.01
39823;BME280;25499;53.958;10.970;2023-04-26T14:04:05;101232.63;;;10.62;60.02
39823;BME280;25499;53.958;10.970;2023-04-26T14:06:32;101228.31;;;10.67;59.92
39823;BME280;25499;53.958;10.970;2023-04-26T14:09:00;101231.84;;;10.81;59.63
39823;BME280;25499;53.958;10.970;2023-04-26T14:11:30;101226.66;;;10.91;59.62
39823;BME280;25499;53.958;10.970;2023-04-26T14:13:57;101215.44;;;11.33;58.00
39823;BME280;25499;53.958;10.970;2023-04-26T14:16:25;101231.13;;;11.81;57.73
39823;BME280;25499;53.958;10.970;2023-04-26T14:18:52;101192.00;;;11.69;56.89
39823;BME280;25499;53.958;10.970;2023-04-26T14:21:19;101219.84;;;12.05;57.14
39823;BME280;25499;53.958;10.970;2023-04-26T14:23:46;101254.59;;;12.21;58.03
39823;BME280;25499;53.958;10.970;2023-04-26T14:26:12;101238.91;;;11.33;59.46
39823;BME280;25499;53.958;10.970;2023-04-26T14:28:39;101292.84;;;11.79;61.59
39823;BME280;25499;53.958;10.970;2023-04-26T14:31:06;101259.81;;;11.72;60.41
39823;BME280;25499;53.958;10.970;2023-04-26T14:33:34;101226.78;;;11.45;59.59
39823;BME280;25499;53.958;10.970;2023-04-26T14:36:01;101181.53;;;10.93;58.42
39823;BME280;25499;53.958;10.970;2023-04-26T14:38:28;101219.78;;;11.25;58.99
39823;BME280;25499;53.958;10.970;2023-04-26T14:40:55;101259.38;;;10.33;61.06
39823;BME280;25499;53.958;10.970;2023-04-26T14:43:21;101313.75;;;10.02;64.82
39823;BME280;25499;53.958;10.970;2023-04-26T14:45:49;101344.22;;;10.14;66.99
39823;BME280;25499;53.958;10.970;2023-04-26T14:48:16;101346.00;;;10.17;66.99
39823;BME280;25499;53.958;10.970;2023-04-26T14:50:44;101286.50;;;9.59;65.48
39823;BME280;25499;53.958;10.970;2023-04-26T14:53:11;101309.78;;;9.46;66.63
39823;BME280;25499;53.958;10.970;2023-04-26T14:55:38;101280.19;;;9.35;65.60
39823;BME280;25499;53.958;10.970;2023-04-26T14:58:05;101277.00;;;9.61;64.46
39823;BME280;25499;53.958;10.970;2023-04-26T15:00:32;101264.84;;;9.58;62.89
39823;BME280;25499;53.958;10.970;2023-04-26T15:02:59;101250.91;;;9.50;63.02
39823;BME280;25499;53.958;10.970;2023-04-26T15:05:26;101224.09;;;9.52;61.33
39823;BME280;25499;53.958;10.970;2023-04-26T15:07:54;101220.75;;;9.70;60.68
39823;BME280;25499;53.958;10.970;2023-04-26T15:10:21;101200.78;;;9.66;60.44
39823;BME280;25499;53.958;10.970;2023-04-26T15:12:48;101182.59;;;9.65;59.44
39823;BME280;25499;53.958;10.970;2023-04-26T15:15:15;101170.44;;;9.64;58.26
39823;BME280;25499;53.958;10.970;2023-04-26T15:17:42;101167.00;;;9.66;57.77
39823;BME280;25499;53.958;10.970;2023-04-26T15:20:10;101182.59;;;9.65;58.93
39823;BME280;25499;53.958;10.970;2023-04-26T15:22:37;101166.84;;;9.48;58.49
39823;BME280;25499;53.958;10.970;2023-04-26T15:25:06;101178.97;;;9.44;58.91
39823;BME280;25499;53.958;10.970;2023-04-26T15:27:33;101201.66;;;9.68;59.04
39823;BME280;25499;53.958;10.970;2023-04-26T15:30:01;101222.81;;;10.12;59.59
39823;BME280;25499;53.958;10.970;2023-04-26T15:32:28;101237.88;;;10.71;59.58
39823;BME280;25499;53.958;10.970;2023-04-26T15:34:56;101203.22;;;10.91;58.53
39823;BME280;25499;53.958;10.970;2023-04-26T15:37:23;101163.25;;;10.79;57.29
39823;BME280;25499;53.958;10.970;2023-04-26T15:39:50;101139.72;;;10.52;56.20
39823;BME280;25499;53.958;10.970;2023-04-26T15:42:18;101180.47;;;10.36;57.05
39823;BME280;25499;53.958;10.970;2023-04-26T15:44:45;101155.22;;;10.30;56.81
39823;BME280;25499;53.958;10.970;2023-04-26T15:47:13;101096.94;;;9.86;55.24
39823;BME280;25499;53.958;10.970;2023-04-26T15:49:40;101100.34;;;9.81;54.93
39823;BME280;25499;53.958;10.970;2023-04-26T15:52:06;101114.34;;;10.07;54.79
39823;BME280;25499;53.958;10.970;2023-04-26T15:54:33;101124.06;;;10.36;54.95
39823;BME280;25499;53.958;10.970;2023-04-26T15:57:00;101117.06;;;10.31;55.12
39823;BME280;25499;53.958;10.970;2023-04-26T15:59:30;101107.59;;;10.37;54.32
39823;BME280;25499;53.958;10.970;2023-04-26T16:01:57;101101.44;;;10.29;54.18
39823;BME280;25499;53.958;10.970;2023-04-26T16:04:24;101100.44;;;9.99;54.54
39823;BME280;25499;53.958;10.970;2023-04-26T16:06:51;101167.16;;;9.93;56.91
39823;BME280;25499;53.958;10.970;2023-04-26T16:09:17;101163.50;;;9.63;57.70
39823;BME280;25499;53.958;10.970;2023-04-26T16:11:44;101159.00;;;9.42;57.84
39823;BME280;25499;53.958;10.970;2023-04-26T16:14:12;101177.47;;;9.77;57.92
39823;BME280;25499;53.958;10.970;2023-04-26T16:16:40;101120.22;;;9.68;56.07
39823;BME280;25499;53.958;10.970;2023-04-26T16:19:07;101162.53;;;9.50;56.94
39823;BME280;25499;53.958;10.970;2023-04-26T16:21:34;101156.59;;;9.66;56.87
39823;BME280;25499;53.958;10.970;2023-04-26T16:24:04;101063.97;;;9.79;53.95
39823;BME280;25499;53.958;10.970;2023-04-26T16:26:33;101042.28;;;9.80;52.00
39823;BME280;25499;53.958;10.970;2023-04-26T16:29:00;101054.50;;;9.97;52.11
39823;BME280;25499;53.958;10.970;2023-04-26T16:31:28;101042.31;;;9.86;52.12
39823;BME280;25499;53.958;10.970;2023-04-26T16:33:58;101035.34;;;9.82;51.77
39823;BME280;25499;53.958;10.970;2023-04-26T16:36:25;101027.53;;;9.78;51.33
39823;BME280;25499;53.958;10.970;2023-04-26T16:38:52;101004.88;;;9.53;50.56
39823;BME280;25499;53.958;10.970;2023-04-26T16:41:19;101053.44;;;9.64;51.67
39823;BME280;25499;53.958;10.970;2023-04-26T16:43:47;101046.50;;;9.58;51.61
39823;BME280;25499;53.958;10.970;2023-04-26T16:46:17;101090.63;;;9.52;52.93
39823;BME280;25499;53.958;10.970;2023-04-26T16:48:43;101118.97;;;9.18;54.78
39823;BME280;25499;53.958;10.970;2023-04-26T16:51:12;101136.56;;;8.59;56.64
39823;BME280;25499;53.958;10.970;2023-04-26T16:53:38;101147.53;;;8.40;56.70
39823;BME280;25499;53.958;10.970;2023-04-26T16:56:09;101179.59;;;8.42;57.81
39823;BME280;25499;53.958;10.970;2023-04-26T16:58:36;101202.94;;;8.40;58.57
39823;BME280;25499;53.958;10.970;2023-04-26T17:01:02;101219.28;;;8.33;59.14
39823;BME280;25499;53.958;10.970;2023-04-26T17:03:29;101238.13;;;8.21;60.29
39823;BME280;25499;53.958;10.970;2023-04-26T17:05:56;101248.31;;;8.11;61.16
39823;BME280;25499;53.958;10.970;2023-04-26T17:08:24;101258.69;;;8.11;61.20
39823;BME280;25499;53.958;10.970;2023-04-26T17:10:51;101296.16;;;8.30;61.89
39823;BME280;25499;53.958;10.970;2023-04-26T17:13:18;101272.06;;;8.37;61.34
39823;BME280;25499;53.958;10.970;2023-04-26T17:15:45;101246.66;;;8.16;60.70
39823;BME280;25499;53.958;10.970;2023-04-26T17:18:12;101276.34;;;8.36;61.20
39823;BME280;25499;53.958;10.970;2023-04-26T17:20:38;101256.59;;;8.43;60.60
39823;BME280;25499;53.958;10.970;2023-04-26T17:23:06;101270.69;;;8.61;60.71
39823;BME280;25499;53.958;10.970;2023-04-26T17:25:35;101283.22;;;8.94;60.28
39823;BME280;25499;53.958;10.970;2023-04-26T17:28:02;101204.41;;;8.90;58.04
39823;BME280;25499;53.958;10.970;2023-04-26T17:30:29;101210.56;;;8.99;56.89
39823;BME280;25499;53.958;10.970;2023-04-26T17:35:24;101212.19;;;8.23;57.89
39823;BME280;25499;53.958;10.970;2023-04-26T17:40:21;101198.41;;;8.27;57.72
39823;BME280;25499;53.958;10.970;2023-04-26T17:42:49;101199.44;;;8.40;57.62
39823;BME280;25499;53.958;10.970;2023-04-26T17:45:16;101195.81;;;8.26;57.27
39823;BME280;25499;53.958;10.970;2023-04-26T17:47:42;101209.78;;;8.35;57.66
39823;BME280;25499;53.958;10.970;2023-04-26T17:50:10;101215.50;;;8.11;58.34
39823;BME280;25499;53.958;10.970;2023-04-26T17:52:37;101199.94;;;8.11;57.67
39823;BME280;25499;53.958;10.970;2023-04-26T17:55:05;101202.41;;;8.03;57.80
39823;BME280;25499;53.958;10.970;2023-04-26T17:57:34;101203.25;;;8.02;57.67
39823;BME280;25499;53.958;10.970;2023-04-26T18:00:02;101225.78;;;8.05;57.94
39823;BME280;25499;53.958;10.970;2023-04-26T18:02:30;101221.97;;;7.83;58.41
39823;BME280;25499;53.958;10.970;2023-04-26T18:04:56;101230.38;;;7.68;59.07
39823;BME280;25499;53.958;10.970;2023-04-26T18:07:23;101250.41;;;7.78;59.61
39823;BME280;25499;53.958;10.970;2023-04-26T18:09:50;101250.34;;;7.72;59.63
39823;BME280;25499;53.958;10.970;2023-04-26T18:12:17;101240.53;;;7.56;59.88
39823;BME280;25499;53.958;10.970;2023-04-26T18:14:43;101269.78;;;7.50;60.58
39823;BME280;25499;53.958;10.970;2023-04-26T18:17:12;101295.75;;;7.53;61.49
39823;BME280;25499;53.958;10.970;2023-04-26T18:19:39;101288.69;;;7.44;61.62
39823;BME280;25499;53.958;10.970;2023-04-26T18:22:06;101305.09;;;7.45;61.57
39823;BME280;25499;53.958;10.970;2023-04-26T18:24:34;101311.09;;;7.41;61.95
39823;BME280;25499;53.958;10.970;2023-04-26T18:27:01;101305.75;;;7.32;61.81
39823;BME280;25499;53.958;10.970;2023-04-26T18:29:28;101313.31;;;7.22;61.77
39823;BME280;25499;53.958;10.970;2023-04-26T18:31:55;101320.97;;;7.16;62.34
39823;BME280;25499;53.958;10.970;2023-04-26T18:34:23;101331.88;;;7.01;63.03
39823;BME280;25499;53.958;10.970;2023-04-26T18:36:50;101343.91;;;6.98;63.49
39823;BME280;25499;53.958;10.970;2023-04-26T18:39:16;101352.06;;;6.77;63.92
39823;BME280;25499;53.958;10.970;2023-04-26T18:41:43;101363.22;;;6.74;64.50
39823;BME280;25499;53.958;10.970;2023-04-26T18:44:10;101376.72;;;6.61;65.22
39823;BME280;25499;53.958;10.970;2023-04-26T18:46:37;101374.97;;;6.60;65.37
39823;BME280;25499;53.958;10.970;2023-04-26T18:49:04;101379.06;;;6.51;65.52
39823;BME280;25499;53.958;10.970;2023-04-26T18:51:32;101385.88;;;6.48;65.56
39823;BME280;25499;53.958;10.970;2023-04-26T18:53:59;101378.09;;;6.46;65.40
39823;BME280;25499;53.958;10.970;2023-04-26T18:56:26;101389.34;;;6.47;65.50
39823;BME280;25499;53.958;10.970;2023-04-26T18:58:53;101404.97;;;6.53;65.91
39823;BME280;25499;53.958;10.970;2023-04-26T19:01:20;101399.31;;;6.31;66.31
39823;BME280;25499;53.958;10.970;2023-04-26T19:03:48;101410.78;;;6.08;67.29
39823;BME280;25499;53.958;10.970;2023-04-26T19:06:15;101415.00;;;6.06;67.62
39823;BME280;25499;53.958;10.970;2023-04-26T19:08:43;101418.44;;;6.05;67.73
39823;BME280;25499;53.958;10.970;2023-04-26T19:11:10;101421.94;;;6.07;67.63